Time;durP1;ratioP1;P1;durP2;ratioP2;P2;SDS_P1;SDS_P2;PMS_P1;PMS_P2;Temp;Humidity;BMP_temperature;BMP_pressure;BME280_temperature;BME280_humidity;BME280_pressure;Samples;Min_cycle;Max_cycle;Signal;HPM_P1;HPM_P2
2023/03/18 00:03:47;;;;;;;18.93;9.07;;;0.80;75.40;;;-1.24;67.22;100637.69;10260811;28;96395;-92
2023/03/18 00:08:51;;;;;;;16.43;9.67;;;0.70;75.50;;;-1.29;67.20;100639.72;10263004;28;97420;-92
2023/03/18 00:13:54;;;;;;;19.10;8.87;;;0.70;75.70;;;-1.36;67.38;100631.38;10266572;28;96669;-93
2023/03/18 00:18:57;;;;;;;18.63;9.90;;;0.60;75.80;;;-1.37;67.78;100636.69;10271828;28;96695;-92
2023/03/18 00:24:00;;;;;;;17.17;9.00;;;0.60;76.50;;;-1.41;68.24;100628.16;10254925;28;96614;-92
2023/03/18 00:29:03;;;;;;;19.80;9.53;;;0.50;75.70;;;-1.45;68.23;100623.19;10208263;28;96849;-92
2023/03/18 00:34:07;;;;;;;22.07;10.53;;;0.50;76.00;;;-1.46;68.46;100624.13;10229770;28;96694;-92
2023/03/18 00:39:12;;;;;;;25.83;12.97;;;0.50;77.20;;;-1.47;68.97;100628.50;10270210;28;96578;-91
2023/03/18 00:44:15;;;;;;;26.60;13.27;;;0.40;77.80;;;-1.49;69.00;100611.25;10209032;28;96616;-92
2023/03/18 00:49:18;;;;;;;23.93;12.13;;;0.40;77.10;;;-1.52;69.02;100620.06;10254428;28;96742;-91
2023/03/18 00:54:23;;;;;;;23.77;12.03;;;0.40;77.60;;;-1.56;69.24;100620.28;10232204;28;96656;-91
2023/03/18 00:59:26;;;;;;;55.73;19.83;;;0.30;78.50;;;-1.59;69.70;100610.03;10267744;28;96725;-89
2023/03/18 01:04:30;;;;;;;41.27;16.80;;;0.30;78.50;;;-1.62;70.08;100605.81;10286159;28;96583;-93
2023/03/18 01:09:33;;;;;;;23.87;11.33;;;0.20;79.10;;;-1.65;69.71;100604.22;10262955;28;96521;-92
2023/03/18 01:14:38;;;;;;;33.37;13.50;;;0.20;79.10;;;-1.65;69.92;100591.19;10266993;28;96817;-93
2023/03/18 01:19:42;;;;;;;15.80;8.33;;;0.30;79.70;;;-1.60;69.71;100595.34;10270832;28;96559;-93
2023/03/18 01:24:46;;;;;;;14.20;7.20;;;0.30;79.30;;;-1.59;69.67;100589.19;10255235;28;96528;-92
2023/03/18 01:29:49;;;;;;;17.03;8.53;;;0.30;80.10;;;-1.58;69.51;100583.06;10242130;28;96618;-93
2023/03/18 01:34:51;;;;;;;15.67;7.37;;;0.30;79.40;;;-1.62;69.94;100575.41;10279742;28;97552;-92
2023/03/18 01:39:54;;;;;;;11.17;6.83;;;0.30;79.70;;;-1.63;69.83;100576.31;10245528;28;96444;-93
2023/03/18 01:45:23;;;;;;;14.43;7.63;;;0.30;80.10;;;-1.68;69.57;100567.06;10230092;28;96581;-92
2023/03/18 01:50:36;;;;;;;12.93;6.87;;;0.30;80.20;;;-1.68;69.75;100567.06;10199515;28;96858;-93
2023/03/18 01:55:41;;;;;;;11.07;5.80;;;0.20;80.30;;;-1.67;69.72;100568.75;10234566;28;97435;-93
2023/03/18 02:00:53;;;;;;;14.00;5.67;;;0.20;80.90;;;-1.65;69.58;100565.16;10238469;28;97193;-92
2023/03/18 02:05:56;;;;;;;11.60;4.97;;;0.20;80.40;;;-1.65;69.47;100556.50;10247228;28;96595;-92
2023/03/18 02:11:01;;;;;;;9.27;4.97;;;0.20;80.60;;;-1.65;69.48;100553.88;10235366;28;98214;-91
2023/03/18 02:16:12;;;;;;;8.90;5.23;;;0.30;81.60;;;-1.61;69.22;100558.03;10225229;28;96727;-92
2023/03/18 02:21:31;;;;;;;11.60;5.15;;;0.30;80.90;;;-1.58;69.21;100554.41;10259775;28;96703;-92
2023/03/18 02:26:57;;;;;;;12.83;7.03;;;0.30;81.20;;;-1.59;69.18;100550.09;10237990;28;96556;-91
2023/03/18 02:32:04;;;;;;;11.90;5.57;;;0.30;80.90;;;-1.63;68.83;100549.41;10266055;28;96910;-92
2023/03/18 02:37:08;;;;;;;12.17;5.70;;;0.30;81.20;;;-1.67;68.93;100551.38;10246790;28;97031;-91
2023/03/18 02:42:13;;;;;;;13.83;5.87;;;0.20;81.30;;;-1.73;68.50;100559.50;10213838;28;96584;-92
2023/03/18 02:47:21;;;;;;;12.40;6.00;;;0.20;80.90;;;-1.81;69.22;100548.63;10236644;28;96671;-93
2023/03/18 02:52:25;;;;;;;10.00;5.93;;;0.20;82.10;;;-1.93;69.31;100557.91;10220319;28;96444;-93
2023/03/18 02:57:28;;;;;;;14.13;6.93;;;0.00;81.70;;;-2.01;69.60;100567.06;10231104;28;96695;-87
2023/03/18 03:02:31;;;;;;;10.43;5.87;;;-0.10;82.00;;;-2.12;69.88;100575.41;10253380;28;96539;-89
2023/03/18 03:07:34;;;;;;;9.93;5.60;;;-0.20;82.00;;;-2.21;70.58;100561.13;10249760;28;96718;-88
2023/03/18 03:12:38;;;;;;;12.57;6.13;;;-0.20;83.10;;;-2.27;70.61;100560.59;10234503;28;96650;-89
2023/03/18 03:17:41;;;;;;;13.23;6.87;;;-0.30;83.90;;;-2.30;71.00;100560.72;10279822;28;96685;-89
2023/03/18 03:22:45;;;;;;;11.47;6.33;;;-0.40;83.90;;;-2.27;70.83;100573.63;10236724;28;96548;-89
2023/03/18 03:27:48;;;;;;;10.73;5.27;;;-0.30;83.60;;;-2.27;70.42;100576.22;10286548;28;96626;-88
2023/03/18 03:32:51;;;;;;;11.47;5.70;;;-0.30;83.50;;;-2.30;70.21;100574.59;10233882;28;96771;-89
2023/03/18 03:37:54;;;;;;;11.23;6.30;;;-0.40;83.60;;;-2.36;70.34;100569.69;10287081;28;96661;-88
2023/03/18 03:42:57;;;;;;;12.57;5.87;;;-0.40;83.30;;;-2.43;70.74;100582.16;10256464;28;97056;-88
2023/03/18 03:48:01;;;;;;;10.80;5.90;;;-0.50;84.60;;;-2.50;70.93;100590.38;10280598;28;97505;-92
2023/03/18 03:53:05;;;;;;;12.83;5.73;;;-0.50;84.80;;;-2.57;71.28;100591.59;10297193;28;96825;-92
2023/03/18 03:58:09;;;;;;;10.77;5.50;;;-0.60;84.60;;;-2.64;71.37;100585.81;10265292;28;96521;-92
2023/03/18 04:03:12;;;;;;;11.87;7.27;;;-0.70;85.00;;;-2.68;71.21;100599.06;10286888;28;96611;-91
2023/03/18 04:08:16;;;;;;;10.47;6.10;;;-0.70;85.20;;;-2.74;71.72;100590.63;10284190;28;96750;-88
2023/03/18 04:13:19;;;;;;;11.47;5.73;;;-0.80;85.80;;;-2.71;71.81;100600.03;10254667;28;98753;-88
2023/03/18 04:18:22;;;;;;;11.47;6.00;;;-0.70;85.80;;;-2.72;71.74;100598.34;10240269;28;97342;-87
2023/03/18 04:23:25;;;;;;;11.50;6.10;;;-0.80;86.00;;;-2.75;72.06;100608.94;10257003;28;96605;-92
2023/03/18 04:28:28;;;;;;;11.80;5.43;;;-0.80;85.80;;;-2.77;71.87;100608.13;10250729;28;98873;-93
2023/03/18 04:33:32;;;;;;;10.10;5.33;;;-0.80;85.50;;;-2.75;71.84;100603.72;10299606;28;96620;-92
2023/03/18 04:38:35;;;;;;;11.37;6.07;;;-0.80;85.60;;;-2.75;71.81;100611.53;10290980;28;97539;-93
2023/03/18 04:43:38;;;;;;;11.27;5.97;;;-0.80;85.80;;;-2.80;71.82;100610.91;10257786;28;97344;-92
2023/03/18 04:48:42;;;;;;;16.23;6.47;;;-0.80;85.80;;;-2.85;72.16;100616.31;10287313;28;98710;-94
2023/03/18 04:53:45;;;;;;;11.43;6.13;;;-0.80;86.30;;;-2.89;71.99;100624.31;10260853;28;96471;-92
2023/03/18 04:58:48;;;;;;;12.00;6.50;;;-0.90;85.90;;;-2.91;72.29;100623.56;10229358;28;96522;-92
2023/03/18 05:03:51;;;;;;;11.53;6.20;;;-0.90;86.40;;;-2.92;72.77;100635.72;10268031;28;98880;-92
2023/03/18 05:08:55;;;;;;;15.43;6.67;;;-1.00;86.70;;;-2.90;73.07;100633.88;10282409;28;97513;-93
2023/03/18 05:13:58;;;;;;;11.27;6.37;;;-0.90;87.50;;;-2.77;73.23;100626.34;10258473;28;97513;-92
2023/03/18 05:19:02;;;;;;;16.33;7.43;;;-0.90;88.00;;;-2.64;73.15;100632.63;10242048;28;96748;-93
2023/03/18 05:24:05;;;;;;;16.93;8.13;;;-0.80;88.30;;;-2.47;73.02;100643.09;10284050;28;97203;-93
2023/03/18 05:29:08;;;;;;;13.87;6.73;;;-0.70;88.00;;;-2.27;73.23;100649.09;10278646;28;96522;-93
2023/03/18 05:34:12;;;;;;;13.50;6.57;;;-0.50;88.90;;;-2.01;72.41;100650.41;10219424;28;96585;-92
2023/03/18 05:39:15;;;;;;;16.37;6.50;;;-0.30;88.80;;;-1.75;71.71;100652.53;10271425;28;96641;-93
2023/03/18 05:44:18;;;;;;;9.90;4.43;;;-0.10;88.90;;;-1.49;71.35;100651.19;10239788;28;98332;-90
2023/03/18 05:49:22;;;;;;;11.20;4.53;;;0.20;88.10;;;-1.22;70.42;100648.88;10287920;28;96572;-91
2023/03/18 05:54:25;;;;;;;9.47;5.37;;;0.40;87.80;;;-1.00;69.46;100656.41;10288639;28;98869;-91
2023/03/18 05:59:30;;;;;;;10.27;5.50;;;0.70;87.00;;;-0.76;68.86;100649.00;10274055;28;97335;-91
2023/03/18 06:04:33;;;;;;;14.27;6.00;;;0.90;86.60;;;-0.51;67.75;100651.09;10230405;28;100162;-91
2023/03/18 06:09:36;;;;;;;8.93;4.70;;;1.10;85.80;;;-0.24;67.11;100658.28;10274884;28;96543;-90
2023/03/18 06:14:39;;;;;;;8.03;4.70;;;1.40;85.20;;;0.02;66.30;100659.41;10214573;28;96674;-90
2023/03/18 06:19:43;;;;;;;8.37;4.77;;;1.60;84.50;;;0.27;64.83;100657.03;10242097;28;96437;-90
2023/03/18 06:24:47;;;;;;;11.63;5.60;;;1.80;83.60;;;0.51;63.97;100660.78;10226238;28;96725;-90
2023/03/18 06:29:50;;;;;;;10.87;5.10;;;2.10;82.80;;;0.69;62.50;100660.59;10224187;28;96806;-91
2023/03/18 06:34:53;;;;;;;13.73;6.87;;;2.30;81.90;;;0.78;61.76;100654.78;10233031;28;96695;-91
2023/03/18 06:39:57;;;;;;;18.23;9.27;;;2.40;81.30;;;0.85;61.53;100671.00;10246154;28;97174;-89
2023/03/18 06:45:00;;;;;;;22.83;10.17;;;2.50;80.90;;;0.96;61.56;100668.53;10257093;28;96704;-87
2023/03/18 06:50:04;;;;;;;13.83;6.73;;;2.60;80.60;;;1.17;60.74;100688.13;10212786;28;96627;-88
2023/03/18 06:55:08;;;;;;;12.10;5.80;;;2.80;80.20;;;1.42;60.61;100691.84;10292105;28;96533;-89
2023/03/18 07:00:12;;;;;;;11.73;6.13;;;3.00;79.90;;;1.73;59.56;100685.47;10267005;28;96661;-88
2023/03/18 07:05:16;;;;;;;12.17;6.20;;;3.30;79.20;;;2.08;58.25;100691.03;10233046;28;96714;-88
2023/03/18 07:10:29;;;;;;;12.70;6.63;;;3.60;78.30;;;2.45;57.56;100680.69;10238421;28;97303;-87
2023/03/18 07:15:35;;;;;;;11.00;6.40;;;3.90;77.30;;;2.74;56.57;100679.53;10245781;28;96603;-88
2023/03/18 07:20:39;;;;;;;13.63;8.10;;;4.20;75.60;;;3.00;55.83;100672.50;10222535;28;98189;-90
2023/03/18 07:25:43;;;;;;;12.97;6.83;;;4.50;75.10;;;3.33;56.05;100681.53;10240480;28;96980;-91
2023/03/18 07:30:46;;;;;;;12.60;5.87;;;4.70;75.50;;;3.69;55.30;100678.03;10237164;28;98348;-92
2023/03/18 07:35:50;;;;;;;13.57;6.67;;;5.10;75.10;;;4.00;53.96;100677.44;10249062;28;98343;-90
2023/03/18 07:40:53;;;;;;;11.50;6.53;;;5.40;74.00;;;4.31;53.31;100675.16;10219701;28;98519;-91
2023/03/18 07:45:57;;;;;;;13.30;6.60;;;5.70;73.10;;;4.57;51.93;100674.03;10245281;28;96752;-89
2023/03/18 07:51:01;;;;;;;10.80;5.80;;;6.10;72.00;;;4.85;51.86;100679.78;10211163;28;96565;-91
2023/03/18 07:56:06;;;;;;;10.23;6.00;;;6.30;71.50;;;5.14;51.00;100674.84;10216507;28;96571;-89
2023/03/18 08:01:09;;;;;;;10.03;5.87;;;6.60;70.60;;;5.44;50.61;100682.13;10233227;28;97657;-90
2023/03/18 08:06:14;;;;;;;9.13;5.07;;;6.90;70.00;;;5.77;49.88;100689.13;10232715;28;96650;-91
2023/03/18 08:11:17;;;;;;;11.27;5.17;;;7.20;69.10;;;6.85;49.97;100681.00;10215557;28;96591;-91
2023/03/18 08:16:20;;;;;;;11.30;6.13;;;7.70;69.80;;;8.20;46.89;100660.06;10229850;28;98370;-91
2023/03/18 08:21:23;;;;;;;11.80;5.80;;;8.40;68.80;;;8.79;45.02;100658.97;10233299;28;96522;-90
2023/03/18 08:26:26;;;;;;;9.30;5.97;;;9.00;67.20;;;9.84;43.11;100669.16;10232831;28;96435;-91
2023/03/18 08:31:29;;;;;;;11.30;6.17;;;9.70;66.80;;;10.53;40.06;100658.75;10236049;28;96518;-90
2023/03/18 08:36:33;;;;;;;11.13;5.63;;;10.40;63.10;;;11.12;39.57;100657.91;10212865;28;96658;-91
2023/03/18 08:41:37;;;;;;;10.57;5.13;;;11.00;62.30;;;11.68;36.69;100640.41;10246671;28;96533;-91
2023/03/18 08:46:40;;;;;;;6.73;4.50;;;11.60;60.50;;;12.35;36.73;100640.28;10207972;28;96498;-91
2023/03/18 08:51:43;;;;;;;7.97;4.82;;;12.20;58.40;;;12.82;35.09;100636.84;10230191;28;96498;-90
2023/03/18 08:56:46;;;;;;;6.25;4.38;;;12.80;57.20;;;13.09;34.09;100639.09;10263543;28;96566;-90
2023/03/18 09:01:50;;;;;;;7.28;4.57;;;13.20;55.00;;;13.34;33.67;100631.84;10239771;28;96719;-90
2023/03/18 09:06:53;;;;;;;10.27;4.70;;;13.70;53.90;;;13.60;33.14;100628.84;10215586;28;97339;-89
2023/03/18 09:11:56;;;;;;;9.57;4.78;;;14.20;52.70;;;14.06;33.17;100626.16;10214197;28;97502;-91
2023/03/18 09:16:59;;;;;;;11.63;5.82;;;14.60;52.30;;;14.57;31.92;100621.00;10245618;28;98135;-91
2023/03/18 09:22:03;;;;;;;6.43;3.92;;;15.10;51.30;;;14.48;31.25;100605.25;10251787;28;96699;-90
2023/03/18 09:27:06;;;;;;;6.75;3.58;;;15.40;49.50;;;14.32;30.91;100606.22;10262185;28;96821;-89
2023/03/18 09:32:10;;;;;;;7.28;3.90;;;15.50;48.10;;;14.09;30.53;100601.78;10245690;28;100078;-89
2023/03/18 09:37:13;;;;;;;5.18;3.38;;;15.30;47.20;;;13.68;30.39;100598.59;10236689;28;96758;-88
2023/03/18 09:43:01;;;;;;;7.95;3.65;;;15.10;46.50;;;13.54;31.14;100602.00;10253834;28;97150;-89
2023/03/18 09:48:42;;;;;;;5.57;3.20;;;15.10;46.70;;;13.51;31.01;100595.19;10247758;28;96966;-89
2023/03/18 09:53:58;;;;;;;5.22;3.08;;;15.30;45.70;;;14.04;30.80;100590.78;10226954;28;96621;-90
2023/03/18 09:59:27;;;;;;;5.85;2.67;;;15.70;46.00;;;14.99;29.55;100588.28;10247911;28;99500;-91
2023/03/18 10:04:48;;;;;;;4.80;3.28;;;16.40;45.40;;;15.85;29.47;100576.84;10238179;28;96644;-89
2023/03/18 10:10:21;;;;;;;5.85;3.72;;;17.00;45.00;;;16.09;27.88;100579.09;10256539;28;96598;-88
2023/03/18 10:15:40;;;;;;;6.00;3.60;;;17.30;43.20;;;15.80;28.40;100569.38;10237306;28;97295;-89
2023/03/18 10:21:23;;;;;;;5.60;3.53;;;17.00;43.50;;;15.45;28.95;100565.69;10266888;28;96506;-87
2023/03/18 10:26:56;;;;;;;5.93;3.88;;;16.90;43.60;;;15.34;29.05;100571.56;10253039;28;98595;-87
2023/03/18 10:32:20;;;;;;;5.88;4.32;;;16.90;43.60;;;15.26;28.33;100559.94;10238828;28;97309;-90
2023/03/18 10:37:38;;;;;;;9.60;5.45;;;16.80;42.90;;;15.11;28.42;100558.31;10231656;28;97426;-89
2023/03/18 10:42:42;;;;;;;7.63;4.20;;;17.00;42.80;;;15.75;29.35;100556.53;10252139;28;96648;-89
2023/03/18 10:48:09;;;;;;;5.75;3.88;;;17.30;43.60;;;16.45;28.29;100548.59;10260483;28;96562;-88
2023/03/18 10:53:54;;;;;;;5.35;3.83;;;17.90;42.80;;;16.85;26.88;100539.75;10236647;28;96505;-88
2023/03/18 10:58:57;;;;;;;6.22;3.58;;;18.40;42.50;;;17.05;26.98;100530.94;10284049;28;96675;-91
2023/03/18 11:04:05;;;;;;;6.22;4.65;;;18.70;41.70;;;17.42;26.10;100524.19;10195565;28;96488;-89
2023/03/18 11:09:14;;;;;;;7.80;4.35;;;19.00;40.40;;;17.87;25.88;100519.91;10180653;28;96655;-90
2023/03/18 11:14:27;;;;;;;6.60;4.53;;;19.50;40.00;;;18.21;24.89;100515.31;10227401;28;96620;-89
2023/03/18 11:19:46;;;;;;;8.57;4.50;;;19.90;39.30;;;18.48;24.29;100505.31;10195797;28;96535;-90
2023/03/18 11:25:10;;;;;;;5.70;4.63;;;20.10;38.60;;;18.61;24.52;100491.81;10242142;28;97100;-89
2023/03/18 11:30:18;;;;;;;5.30;3.80;;;20.40;38.80;;;18.84;24.85;100498.56;10230422;28;97416;-90
2023/03/18 11:35:50;;;;;;;8.40;5.05;;;20.60;38.80;;;18.90;24.08;100493.16;10287895;28;96532;-88
2023/03/18 11:41:16;;;;;;;7.65;4.88;;;20.80;38.20;;;18.90;24.58;100486.94;10253069;28;96792;-88
2023/03/18 11:46:26;;;;;;;6.90;4.60;;;20.80;38.50;;;18.72;24.88;100474.19;10234595;28;98124;-88
2023/03/18 11:51:54;;;;;;;7.47;4.47;;;20.70;38.40;;;18.87;24.26;100477.41;10209633;28;98197;-89
2023/03/18 11:57:44;;;;;;;5.82;4.28;;;20.80;38.10;;;18.98;23.69;100467.84;10261176;28;96809;-90
2023/03/18 12:03:15;;;;;;;6.73;4.13;;;20.90;37.30;;;19.11;23.90;100466.91;10275672;28;97513;-90
2023/03/18 12:08:55;;;;;;;6.18;4.82;;;20.90;37.00;;;19.27;23.02;100452.94;10268839;28;98438;-88
2023/03/18 12:14:22;;;;;;;6.57;5.22;;;21.20;37.10;;;19.69;23.83;100442.47;10249522;28;97552;-88
2023/03/18 12:20:08;;;;;;;7.72;5.05;;;21.50;37.60;;;19.52;23.32;100440.28;10249414;28;97558;-88
2023/03/18 12:25:51;;;;;;;7.82;5.30;;;21.60;37.00;;;19.46;23.45;100438.47;10224390;28;96750;-88
2023/03/18 12:31:21;;;;;;;10.13;6.75;;;21.50;36.70;;;19.23;22.78;100430.16;10224755;28;97658;-89
2023/03/18 12:36:55;;;;;;;6.20;4.72;;;21.50;36.60;;;19.36;23.90;100430.03;10232228;28;96533;-89
2023/03/18 12:42:08;;;;;;;7.18;5.05;;;21.40;36.30;;;18.92;24.48;100428.31;10237691;28;97158;-87
2023/03/18 12:47:41;;;;;;;7.57;5.20;;;21.10;37.20;;;18.41;24.96;100431.84;10241394;28;97695;-87
2023/03/18 12:53:21;;;;;;;7.35;5.10;;;20.70;37.60;;;18.03;25.21;100442.53;10243790;28;96778;-88
2023/03/18 12:58:36;;;;;;;6.00;4.82;;;20.30;37.80;;;17.64;25.87;100434.28;10217083;28;97617;-87
2023/03/18 13:03:43;;;;;;;7.55;5.57;;;19.90;38.10;;;17.30;26.44;100432.66;10267533;28;96592;-86
2023/03/18 13:09:11;;;;;;;9.35;5.72;;;19.50;38.60;;;16.72;27.55;100424.28;10238242;28;96763;-86
2023/03/18 13:14:39;;;;;;;9.98;6.90;;;18.90;39.50;;;16.10;28.72;100435.16;10259301;28;98561;-86
2023/03/18 13:19:43;;;;;;;7.05;5.85;;;18.30;40.50;;;15.93;29.43;100440.00;10253832;28;97653;-86
2023/03/18 13:25:12;;;;;;;10.63;6.90;;;17.90;41.30;;;15.76;29.36;100429.59;10221632;28;96652;-87
2023/03/18 13:30:47;;;;;;;7.65;5.65;;;17.70;41.50;;;15.87;30.18;100435.44;10219470;28;96738;-86
2023/03/18 13:36:21;;;;;;;8.15;6.03;;;17.70;42.30;;;15.90;30.20;100433.19;10254901;28;96706;-86
2023/03/18 13:41:56;;;;;;;9.48;6.20;;;17.70;42.50;;;16.04;30.62;100421.50;10219467;28;96636;-84
2023/03/18 13:47:07;;;;;;;8.68;6.05;;;17.80;42.70;;;16.02;30.21;100425.44;10233612;28;97091;-86
2023/03/18 13:52:42;;;;;;;9.30;5.43;;;18.00;42.70;;;15.73;31.02;100427.31;10218857;28;96757;-86
2023/03/18 13:58:04;;;;;;;8.30;5.90;;;17.60;43.20;;;15.55;31.64;100420.75;10216094;28;98283;-85
2023/03/18 14:03:28;;;;;;;7.95;5.50;;;17.40;43.80;;;15.49;30.87;100414.31;10248506;28;98644;-84
2023/03/18 14:08:38;;;;;;;8.68;5.95;;;17.40;43.50;;;15.61;31.48;100415.44;10235507;28;96795;-85
2023/03/18 14:14:04;;;;;;;8.65;5.55;;;17.50;43.70;;;15.70;31.48;100408.09;10254125;28;97003;-85
2023/03/18 14:19:27;;;;;;;8.35;5.45;;;17.60;43.70;;;15.76;31.75;100397.44;10252560;28;96768;-87
2023/03/18 14:24:30;;;;;;;7.93;6.13;;;17.70;43.90;;;15.82;31.34;100381.59;10250252;28;96651;-85
2023/03/18 14:29:41;;;;;;;6.30;5.22;;;17.80;43.70;;;15.92;31.43;100385.56;10254582;28;96649;-89
2023/03/18 14:34:57;;;;;;;7.88;5.60;;;18.00;43.70;;;15.82;31.42;100373.56;10264944;28;96611;-91
2023/03/18 14:40:15;;;;;;;17.58;13.55;;;17.90;43.40;;;15.89;32.24;100374.41;10251183;28;96641;-90
2023/03/18 14:45:32;;;;;;;8.75;6.10;;;17.90;44.00;;;16.08;31.94;100373.72;10239520;28;96827;-89
2023/03/18 14:50:46;;;;;;;6.63;4.50;;;18.10;44.00;;;16.07;31.75;100374.72;10254037;28;96557;-89
2023/03/18 14:55:54;;;;;;;6.97;4.55;;;18.20;43.90;;;15.97;31.72;100369.72;10256579;28;97739;-88
2023/03/18 15:01:11;;;;;;;6.55;4.35;;;18.10;43.90;;;15.86;31.76;100356.88;10232057;28;97432;-89
2023/03/18 15:06:20;;;;;;;7.25;3.80;;;18.10;43.70;;;15.75;31.94;100357.44;10228919;28;96702;-88
2023/03/18 15:11:24;;;;;;;5.77;4.03;;;17.90;43.90;;;15.71;32.08;100356.19;10247442;28;96668;-88
2023/03/18 15:16:31;;;;;;;6.05;4.00;;;17.80;44.00;;;15.50;32.34;100362.41;10241886;28;96676;-89
2023/03/18 15:21:36;;;;;;;7.22;5.15;;;17.60;44.10;;;15.49;32.40;100363.44;10260918;28;96630;-88
2023/03/18 15:26:41;;;;;;;6.35;4.32;;;17.60;44.40;;;15.31;32.37;100355.06;10256488;28;97551;-88
2023/03/18 15:31:44;;;;;;;4.70;3.15;;;17.40;44.50;;;14.87;33.00;100358.81;10230998;28;97562;-90
2023/03/18 15:36:59;;;;;;;5.03;3.42;;;16.90;44.80;;;14.41;33.68;100365.31;10249203;28;96854;-88
2023/03/18 15:42:14;;;;;;;5.07;3.70;;;16.40;45.50;;;13.99;34.40;100357.22;10253138;28;97635;-89
2023/03/18 15:47:30;;;;;;;9.20;5.35;;;15.90;46.20;;;13.72;35.16;100362.19;10258103;28;99324;-88
2023/03/18 15:52:40;;;;;;;6.00;3.70;;;15.60;46.70;;;13.40;35.76;100376.72;10282542;28;96413;-90
2023/03/18 15:57:43;;;;;;;9.57;6.20;;;15.20;47.40;;;13.07;36.39;100387.66;10263266;28;96618;-90
2023/03/18 16:02:47;;;;;;;17.07;12.43;;;14.80;47.90;;;12.75;37.03;100388.72;10251487;28;96635;-89
2023/03/18 16:07:51;;;;;;;10.90;6.50;;;14.40;48.50;;;12.47;37.57;100391.06;10256847;28;96618;-90
2023/03/18 16:13:00;;;;;;;10.80;6.63;;;14.10;49.30;;;12.22;38.22;100393.03;10235791;28;97450;-89
2023/03/18 16:18:03;;;;;;;13.03;7.13;;;13.70;49.60;;;11.98;39.05;100398.44;10252574;28;96502;-89
2023/03/18 16:23:06;;;;;;;16.43;7.80;;;13.50;50.30;;;11.72;39.47;100393.34;10238986;28;98217;-90
2023/03/18 16:28:21;;;;;;;21.97;10.87;;;13.20;50.70;;;11.51;39.99;100399.19;10258250;28;97040;-90
2023/03/18 16:33:24;;;;;;;25.73;11.87;;;13.00;51.40;;;11.30;40.73;100410.38;10256363;28;97538;-90
2023/03/18 16:38:29;;;;;;;27.57;11.77;;;12.80;51.70;;;11.10;41.23;100403.75;10259129;28;96766;-87
2023/03/18 16:43:32;;;;;;;32.03;12.37;;;12.60;52.00;;;10.88;41.64;100408.72;10254956;28;96587;-88
2023/03/18 16:48:35;;;;;;;33.17;13.97;;;12.40;52.40;;;10.67;42.07;100413.66;10262278;28;96807;-90
2023/03/18 16:53:39;;;;;;;25.73;14.40;;;12.20;52.90;;;10.47;42.68;100413.13;10282403;28;96775;-91
2023/03/18 16:58:43;;;;;;;23.83;10.70;;;12.00;53.30;;;10.28;42.92;100410.72;10252924;28;96622;-89
2023/03/18 17:03:46;;;;;;;17.37;8.07;;;11.80;53.70;;;10.08;43.66;100420.75;10239455;28;96568;-88
2023/03/18 17:08:51;;;;;;;14.13;7.50;;;11.60;54.10;;;9.88;44.07;100414.81;10203921;28;96563;-90
2023/03/18 17:13:55;;;;;;;16.77;9.63;;;11.40;54.50;;;9.67;44.34;100417.06;10272643;28;96940;-90
2023/03/18 17:18:58;;;;;;;17.33;10.60;;;11.20;54.70;;;9.47;44.97;100421.72;10236490;28;96580;-89
2023/03/18 17:24:02;;;;;;;19.07;11.57;;;11.00;54.90;;;9.22;45.35;100426.00;10234063;28;96636;-92
2023/03/18 17:29:06;;;;;;;30.17;14.07;;;10.80;55.20;;;9.02;46.52;100428.81;10255281;28;96630;-90
2023/03/18 17:34:12;;;;;;;23.83;14.23;;;10.60;55.90;;;8.79;46.58;100433.75;10214826;28;97414;-92
2023/03/18 17:39:16;;;;;;;22.40;11.63;;;10.40;56.30;;;8.52;47.31;100436.44;10243451;28;96952;-91
2023/03/18 17:44:27;;;;;;;20.47;12.27;;;10.20;56.80;;;8.24;48.00;100433.75;10240535;28;97249;-95
2023/03/18 17:49:31;;;;;;;24.47;12.60;;;9.90;57.20;;;7.98;48.89;100438.91;10270266;28;97021;-93
2023/03/18 17:54:35;;;;;;;28.93;14.93;;;9.70;57.90;;;7.76;49.55;100444.53;10272924;28;96516;-95
2023/03/18 17:59:38;;;;;;;35.73;16.57;;;9.40;58.40;;;7.53;50.34;100454.63;10242110;28;96657;-95
2023/03/18 18:04:42;;;;;;;26.50;12.83;;;9.20;58.90;;;7.34;50.94;100463.41;10259024;28;96727;-95
2023/03/18 18:09:45;;;;;;;34.20;16.33;;;9.00;59.40;;;7.15;51.79;100452.84;10244397;28;96447;-95
2023/03/18 18:14:49;;;;;;;33.83;16.53;;;8.80;60.00;;;6.96;52.26;100453.69;10269575;28;96569;-95
2023/03/18 18:19:53;;;;;;;23.40;11.77;;;8.70;60.90;;;6.78;52.99;100455.31;10260487;28;96811;-93
2023/03/18 18:24:56;;;;;;;14.03;8.43;;;8.50;61.40;;;6.62;53.20;100469.91;10287961;28;96598;-93
2023/03/18 18:29:59;;;;;;;22.83;10.47;;;8.30;61.50;;;6.46;54.14;100460.81;10280624;28;96696;-93
2023/03/18 18:35:03;;;;;;;40.73;25.70;;;8.10;62.30;;;6.29;54.35;100470.22;10242796;28;97075;-93
2023/03/18 18:40:09;;;;;;;67.67;37.33;;;8.00;62.60;;;6.11;55.22;100472.63;10280879;28;96455;-93
2023/03/18 18:45:17;;;;;;;38.50;23.93;;;7.80;63.40;;;5.97;55.48;100473.00;10265593;28;98668;-92
2023/03/18 18:50:31;;;;;;;61.47;29.67;;;7.70;63.40;;;5.85;56.26;100480.94;10228848;28;96903;-92
2023/03/18 18:55:34;;;;;;;36.70;22.43;;;7.50;64.10;;;5.73;57.12;100474.09;10225288;28;96895;-93
2023/03/18 19:00:37;;;;;;;28.30;15.93;;;7.40;64.50;;;5.63;58.20;100481.09;10273810;28;96676;-93
2023/03/18 19:05:42;;;;;;;27.77;16.10;;;7.30;65.80;;;5.52;57.60;100479.38;10260427;28;96598;-93
2023/03/18 19:10:45;;;;;;;19.20;11.47;;;7.20;65.60;;;5.41;58.30;100476.81;10246204;28;96552;-93
2023/03/18 19:15:54;;;;;;;16.20;11.30;;;7.10;65.90;;;5.30;59.04;100476.84;10227072;28;96570;-93
2023/03/18 19:20:57;;;;;;;104.10;60.93;;;7.00;66.60;;;5.21;59.37;100474.97;10244382;28;96548;-89
2023/03/18 19:26:05;;;;;;;36.73;20.77;;;6.90;67.10;;;5.10;59.48;100478.50;10264461;28;96616;-93
2023/03/18 19:31:12;;;;;;;31.87;15.57;;;6.80;67.30;;;5.02;60.43;100480.91;10255777;28;97435;-92
2023/03/18 19:36:25;;;;;;;24.00;14.33;;;6.70;67.70;;;4.92;60.59;100485.25;10247456;28;96613;-93
2023/03/18 19:41:29;;;;;;;46.60;23.90;;;6.60;68.00;;;4.80;61.90;100490.56;10245758;28;96563;-94
2023/03/18 19:46:37;;;;;;;31.67;16.80;;;6.50;69.60;;;4.71;61.87;100493.09;10252430;28;96589;-93
2023/03/18 19:51:41;;;;;;;26.33;17.07;;;6.40;69.10;;;4.69;62.14;100500.28;10227822;28;96773;-93
2023/03/18 19:56:45;;;;;;;19.93;12.43;;;6.40;70.00;;;4.67;62.30;100502.19;10235553;28;98835;-92
2023/03/18 20:01:49;;;;;;;22.83;14.30;;;6.30;70.10;;;4.69;63.22;100492.38;10232106;28;96906;-95
2023/03/18 20:06:53;;;;;;;27.53;17.93;;;6.40;70.90;;;4.74;63.31;100498.13;10266723;28;97443;-93
2023/03/18 20:12:02;;;;;;;30.93;21.67;;;6.40;71.50;;;4.80;63.99;100508.16;10252229;28;96938;-94
2023/03/18 20:17:41;;;;;;;26.13;17.47;;;6.40;72.00;;;4.78;63.64;100508.28;10262274;28;96649;-93
2023/03/18 20:22:58;;;;;;;26.77;15.37;;;6.50;72.10;;;4.73;63.71;100507.78;10234918;28;96822;-94
2023/03/18 20:28:06;;;;;;;22.30;13.33;;;6.40;71.70;;;4.64;63.77;100497.19;10272037;28;97323;-94
2023/03/18 20:33:09;;;;;;;22.53;12.67;;;6.30;72.10;;;4.51;64.30;100508.69;10293766;28;96605;-93
2023/03/18 20:38:38;;;;;;;18.20;10.63;;;6.20;72.60;;;4.40;64.61;100513.97;10282042;28;96423;-93
2023/03/18 20:43:41;;;;;;;15.57;10.30;;;6.10;72.80;;;4.26;64.90;100509.78;10264945;28;96654;-93
2023/03/18 20:48:44;;;;;;;14.73;9.17;;;6.00;73.50;;;4.13;64.88;100509.03;10255044;28;97414;-95
2023/03/18 20:53:49;;;;;;;25.60;14.70;;;5.90;73.30;;;3.99;65.55;100515.38;10260088;28;96587;-92
2023/03/18 20:58:52;;;;;;;22.97;14.07;;;5.80;73.70;;;3.86;65.82;100524.31;10251863;28;96796;-93
2023/03/18 21:04:00;;;;;;;19.47;12.00;;;5.60;74.30;;;3.73;66.28;100522.63;10262374;28;96646;-92
2023/03/18 21:09:04;;;;;;;20.37;12.77;;;5.50;74.90;;;3.62;66.70;100519.97;10244240;28;96575;-92
2023/03/18 21:14:13;;;;;;;26.40;16.10;;;5.40;75.30;;;3.53;67.20;100527.69;10237377;28;96734;-91